Notice: Undefined index: wuKey in /web/htdocs/www.meteopomezia.it/home/weather28/wuforecast/wualmanac.php on line 27




Webcam Castelli Romani more information Webcam Castelli Romani


Webcam Traffico live more information Webcam Traffico live


avvertimento per Pioggia more information rain snow radar


altri nostri siti meteo:

Rischio IncendiRischio Incendi

Meteo-CloudBanner Meteo-Cloud

Pomeziameteo 1Sito sul meteo

Pomeziameteo DashboardSito sul meteo

Caput FrigorisSito sul meteo

BarcellonameteoSito sul meteo

MeteoipassiSito sul meteo

ViterbometeoSito sul meteo

TortoretometeolidoSito sul meteo

MeteospinacetoSito sul meteo

MeteoardeaSito sul meteo

MeteopalestrinaSito sul meteo

MeteocastelliSito sul meteo

MeteoiserniaSito sul meteo

RomaeurmeteoSito sul meteo

MeteomarconiaSito sul meteo

CastelnuovovomanometeoSito sul meteo

MeteogonzagaSito sul meteo

MeteonetworkInvio dai a Meteonetwork

Rete Linea MeteoInvio dai a Meteonetwork

DesotermicaBanner Desotermica



Rain From: 08-12-2021 12:00 Until: 23:59 warning for: Rain Level: Orange info button
Wind From: 08-12-2021 00:00 Until: 21:59 warning for: Wind Level: Yellow info button

Report METAR

   
LIRE - Pratica Di Mare(, Italy
Distanza dalla stazione: W 9 km
Dati ricevuti: 08-12-2021 00:55
Sereno  
Sereno  
   Vento: Nord 3.7 km/h
Vento: Nord 3.7 km/h
Temperatura: 5°C
P.to Rugiada: 0°C
Umidita: 70%
Barometro: 1013 hPa
Visibilita: oltre 10 km
dettagli cloud: Sereno
LIRE 072355Z 01002KT CAVOK 05/00 Q1013 RMK SKC VIS MIN 9999 WIND THR13 08002KT WIND THR31 /////KT BLU
LIRA - Ciampino(It-Afb/, Italy
Distanza dalla stazione: NE 16 km
Dati ricevuti: 08-12-2021 01:20
Sereno  
Sereno  
   Vento: Variabile 3.7 km/h
Vento: Variabile 3.7 km/h
Temperatura: 3°C
P.to Rugiada: -4°C
Umidita: 60%
Barometro: 1013 hPa
Visibilita: oltre 10 km
dettagli cloud: Sereno
LIRA 080020Z VRB02KT CAVOK 03/M04 Q1013
LIRF - Rome/Fiumicino, Italy
Distanza dalla stazione: W 27 km
Dati ricevuti: 08-12-2021 01:20
Sereno  
Sereno  
   Vento: Oriente 9.3 km/h
Vento: Oriente 9.3 km/h
Temperatura: 1°C
Temperatura Vento: -2°C
P.to Rugiada: -1°C
Umidita: 87%
Barometro: 1013 hPa
Visibilita: oltre 10 km
dettagli cloud: Sereno
LIRF 080020Z 10005KT CAVOK 01/M01 Q1013 NOSIG
LIRU - Rome/Urbe (it-Af, Italy
Distanza dalla stazione: N 31 km
Dati ricevuti: 07-12-2021 15:50
DATI Obsoleti
Sereno  
Sereno  
   Vento: Nord 13 km/h
Vento: Nord 13 km/h
Temperatura: 11°C
P.to Rugiada: -2°C
Umidita: 41%
Barometro: 1012 hPa
Visibilita: oltre 10 km
dettagli cloud: Sereno
LIRU 071450Z 01007KT CAVOK 11/M02 Q1012
LIRL - Latina (it-Afb), Italy
Distanza dalla stazione: SE 36 km
Dati ricevuti: 07-12-2021 18:55
DATI Obsoleti
Sereno  
Sereno  
   Vento: NNW 13 km/h
Vento: NNW 13 km/h
Temperatura: 7°C
Temperatura Vento: 4°C
P.to Rugiada: -6°C
Umidita: 39%
Barometro: 1012 hPa
Visibilita: oltre 10 km
dettagli cloud: Sereno
LIRL 071755Z 33007KT CAVOK 07/M06 Q1012
LIRG - Guidonia (it-Afb, Italy
Distanza dalla stazione: NE 41 km
Dati ricevuti: 07-12-2021 18:55
DATI Obsoleti
Sereno  
Sereno  
   Vento: NE 7.4 km/h
Vento: NE 7.4 km/h
Temperatura: 3°C
Temperatura Vento: 1°C
P.to Rugiada: -4°C
Umidita: 60%
Barometro: 1014 hPa
Visibilita: oltre 10 km
dettagli cloud: Sereno
LIRG 071755Z 02004KT CAVOK 03/M04 Q1014

Script sviluppato da  Saratoga-weather.org Adattato per il modello da  Weerstation Leuven

Potete trovare le nostre info meteo anche a:

European Weather Network

Weather Underground

AWEKAS

Citizen Weather Observer Program (CWOP)

HAMweather, WeatherForYou, PWS Weather

Strumentazione usata:

Stazione meteo
Davis VP2

Programma gestore dati meteo
WVIEW

Server per i dati meteo
Pc-WDS5

Provider
PC-HP-6005

Davis VP2

WVIEW

Pc-WDS5

PC-HP-6005